Time;durP1;ratioP1;P1;durP2;ratioP2;P2;SDS_P1;SDS_P2;PMS_P1;PMS_P2;Temp;Humidity;BMP_temperature;BMP_pressure;BME280_temperature;BME280_humidity;BME280_pressure;Samples;Min_cycle;Max_cycle;Signal;HPM_P1;HPM_P2
2023/10/08 00:01:50;;;;;;;;;;;12.10;99.90;;;;;;5043238;28;20021;-82
2023/10/08 00:04:19;;;;;;;14.90;4.55;;;12.10;99.90;;;;;;5024883;28;19913;-77
2023/10/08 00:06:46;;;;;;;12.57;4.85;;;12.10;99.90;;;;;;5024869;28;20030;-76
2023/10/08 00:09:12;;;;;;;11.55;4.82;;;12.10;99.90;;;;;;5042848;28;20018;-76
2023/10/08 00:11:40;;;;;;;7.70;4.35;;;12.10;99.90;;;;;;5024717;28;20603;-79
2023/10/08 00:14:09;;;;;;;15.63;4.50;;;12.10;99.90;;;;;;5025008;28;20104;-76
2023/10/08 00:16:39;;;;;;;13.40;4.47;;;12.10;99.90;;;;;;5024958;28;20105;-78
2023/10/08 00:19:14;;;;;;;12.77;4.50;;;12.10;99.90;;;;;;5024812;28;20459;-76
2023/10/08 00:21:41;;;;;;;12.25;3.97;;;12.10;99.90;;;;;;5043022;28;20017;-76
2023/10/08 00:24:07;;;;;;;11.40;3.88;;;12.10;99.90;;;;;;5023594;28;20524;-75
2023/10/08 00:26:35;;;;;;;9.35;3.85;;;12.10;99.90;;;;;;5025147;28;20026;-77
2023/10/08 00:29:06;;;;;;;13.68;4.10;;;12.10;99.90;;;;;;5023761;28;20036;-75
2023/10/08 00:31:40;;;;;;;10.45;3.60;;;12.00;99.90;;;;;;5031174;28;20034;-76
2023/10/08 00:34:13;;;;;;;9.93;3.70;;;12.00;99.90;;;;;;5024434;28;20025;-76
2023/10/08 00:36:44;;;;;;;15.23;4.32;;;12.00;99.90;;;;;;5041585;28;20049;-77
2023/10/08 00:39:14;;;;;;;9.18;3.25;;;12.00;99.90;;;;;;5040757;28;20018;-75
2023/10/08 00:41:46;;;;;;;10.98;3.50;;;12.00;99.90;;;;;;5042349;28;20076;-75
2023/10/08 00:44:16;;;;;;;12.10;3.35;;;12.10;99.90;;;;;;5023840;28;20037;-75
2023/10/08 00:46:53;;;;;;;15.15;3.63;;;12.00;99.90;;;;;;5023887;28;20030;-76
2023/10/08 00:49:48;;;;;;;12.02;3.60;;;12.00;99.90;;;;;;5041707;28;20137;-78
2023/10/08 00:57:28;;;;;;;7.97;3.10;;;12.00;99.90;;;;;;5041877;28;20042;-74
2023/10/08 00:59:55;;;;;;;8.07;2.65;;;12.00;99.90;;;;;;5041918;28;20022;-75
2023/10/08 01:02:27;;;;;;;13.90;2.90;;;12.00;99.90;;;;;;5023582;28;20022;-76
2023/10/08 01:04:54;;;;;;;5.85;2.35;;;12.00;99.90;;;;;;5041460;28;20025;-75
2023/10/08 01:07:21;;;;;;;10.55;2.90;;;12.00;99.90;;;;;;5041341;28;20024;-75
2023/10/08 01:09:51;;;;;;;12.32;3.30;;;12.10;99.90;;;;;;5041007;28;20101;-75
2023/10/08 01:12:33;;;;;;;10.23;2.83;;;12.00;99.90;;;;;;5023343;28;20025;-75
2023/10/08 01:15:23;;;;;;;12.40;2.90;;;12.10;99.90;;;;;;5024174;28;20044;-75
2023/10/08 01:17:58;;;;;;;11.55;3.03;;;12.00;99.90;;;;;;5023912;28;20045;-74
2023/10/08 01:20:36;;;;;;;11.43;2.92;;;12.10;99.90;;;;;;5023648;28;20021;-75
2023/10/08 01:23:10;;;;;;;13.40;3.13;;;12.10;99.90;;;;;;5041712;28;20758;-74
2023/10/08 01:25:38;;;;;;;12.20;4.00;;;12.10;99.90;;;;;;5023879;28;20029;-76
2023/10/08 01:28:08;;;;;;;10.40;3.35;;;12.10;99.90;;;;;;5023918;28;20269;-75
2023/10/08 01:30:41;;;;;;;14.73;3.35;;;12.10;99.90;;;;;;5041320;28;20067;-75
2023/10/08 01:33:11;;;;;;;9.65;3.15;;;12.10;99.90;;;;;;5041068;28;20056;-75
2023/10/08 01:35:38;;;;;;;14.07;3.55;;;12.00;99.90;;;;;;5024039;28;20032;-76
2023/10/08 01:38:06;;;;;;;9.18;2.80;;;12.10;99.90;;;;;;5041997;28;20029;-76
2023/10/08 01:40:32;;;;;;;11.52;3.15;;;12.10;99.90;;;;;;5041800;28;20470;-74
2023/10/08 01:43:01;;;;;;;16.08;3.17;;;12.10;99.90;;;;;;5041025;28;20022;-74
2023/10/08 01:45:27;;;;;;;10.13;3.20;;;12.10;99.90;;;;;;5040792;28;20025;-74
2023/10/08 01:47:54;;;;;;;13.90;3.50;;;12.10;99.90;;;;;;5040854;28;20045;-76
2023/10/08 01:50:29;;;;;;;14.05;3.72;;;12.10;99.90;;;;;;5040875;28;20017;-74
2023/10/08 01:52:55;;;;;;;17.45;4.25;;;12.10;99.90;;;;;;5039842;28;20056;-75
2023/10/08 01:55:22;;;;;;;11.20;3.50;;;12.10;99.90;;;;;;5041363;28;20028;-74
2023/10/08 01:57:51;;;;;;;13.52;4.00;;;12.10;99.90;;;;;;5040550;28;20025;-75
2023/10/08 02:00:20;;;;;;;13.05;3.85;;;12.10;99.90;;;;;;5022541;28;20416;-76
2023/10/08 02:02:53;;;;;;;13.52;3.70;;;12.10;99.90;;;;;;5023249;28;20021;-74
2023/10/08 02:05:20;;;;;;;18.48;3.65;;;12.10;99.90;;;;;;5039825;28;20049;-75
2023/10/08 02:07:46;;;;;;;12.27;4.05;;;12.10;99.90;;;;;;5040561;28;20028;-74
2023/10/08 02:10:14;;;;;;;9.38;3.15;;;12.10;99.90;;;;;;5040641;28;20022;-76
2023/10/08 02:12:40;;;;;;;12.38;3.30;;;12.20;99.90;;;;;;5022769;28;20029;-73
2023/10/08 02:15:07;;;;;;;10.25;3.90;;;12.20;99.90;;;;;;5041053;28;20033;-74
2023/10/08 02:17:33;;;;;;;9.50;3.58;;;12.20;99.90;;;;;;5040348;28;20088;-74
2023/10/08 02:19:59;;;;;;;10.45;4.43;;;12.20;99.90;;;;;;5023925;28;20037;-73
2023/10/08 02:22:25;;;;;;;12.63;4.28;;;12.10;99.90;;;;;;5041156;28;20026;-74
2023/10/08 02:24:53;;;;;;;13.20;4.45;;;12.10;99.90;;;;;;5023426;28;20030;-77
2023/10/08 02:27:19;;;;;;;11.15;4.03;;;12.10;99.90;;;;;;5041120;28;20398;-75
2023/10/08 02:29:44;;;;;;;11.48;4.75;;;12.10;99.90;;;;;;5040728;28;20033;-74
2023/10/08 02:32:10;;;;;;;14.15;4.20;;;12.10;99.90;;;;;;5023648;28;20047;-73
2023/10/08 02:34:36;;;;;;;9.75;4.80;;;12.10;99.90;;;;;;5041021;28;20056;-74
2023/10/08 02:37:03;;;;;;;13.18;4.72;;;12.10;99.90;;;;;;5040634;28;20032;-74
2023/10/08 02:39:31;;;;;;;14.07;5.05;;;12.10;99.90;;;;;;5023246;28;20022;-74
2023/10/08 02:41:59;;;;;;;15.73;4.78;;;12.10;99.90;;;;;;5022368;28;20036;-74
2023/10/08 02:44:25;;;;;;;22.95;5.75;;;12.10;99.90;;;;;;5040786;28;20117;-74
2023/10/08 02:46:51;;;;;;;11.98;5.13;;;12.20;99.90;;;;;;5040917;28;20053;-74
2023/10/08 02:49:22;;;;;;;9.25;4.28;;;12.10;99.90;;;;;;5039341;28;20017;-74
2023/10/08 02:51:51;;;;;;;16.55;5.05;;;12.20;99.90;;;;;;5040876;28;20041;-74
2023/10/08 02:54:23;;;;;;;17.75;4.82;;;12.20;99.90;;;;;;5025952;28;20025;-74
2023/10/08 02:57:02;;;;;;;9.55;4.88;;;12.20;99.90;;;;;;5044287;28;20349;-75
2023/10/08 02:59:53;;;;;;;12.48;4.82;;;12.20;99.90;;;;;;5027711;28;20041;-75
2023/10/08 03:02:19;;;;;;;10.85;5.38;;;12.20;99.90;;;;;;5044090;28;20030;-75
2023/10/08 03:04:46;;;;;;;8.88;4.70;;;12.20;99.90;;;;;;5026588;28;20565;-74
2023/10/08 03:07:21;;;;;;;14.55;5.43;;;12.20;99.90;;;;;;5043989;28;20026;-75
2023/10/08 03:10:03;;;;;;;11.75;5.30;;;12.20;99.90;;;;;;5044183;28;20026;-75
2023/10/08 03:12:31;;;;;;;18.30;5.40;;;12.20;99.90;;;;;;5044676;28;20512;-74
2023/10/08 03:15:01;;;;;;;9.95;4.70;;;12.20;99.90;;;;;;5044262;28;20661;-74
2023/10/08 03:17:29;;;;;;;12.90;4.88;;;12.10;99.90;;;;;;5044228;28;20037;-74
2023/10/08 03:20:01;;;;;;;15.63;4.78;;;12.10;99.90;;;;;;5044384;28;20017;-73
2023/10/08 03:22:33;;;;;;;11.90;4.75;;;12.10;99.90;;;;;;5043954;28;20033;-72
2023/10/08 03:25:14;;;;;;;15.38;4.95;;;12.10;99.90;;;;;;5044419;28;20482;-73
2023/10/08 03:27:41;;;;;;;14.07;4.70;;;12.20;99.90;;;;;;5026118;28;20040;-74
2023/10/08 03:30:13;;;;;;;13.77;4.63;;;12.10;99.90;;;;;;5043487;28;20037;-72
2023/10/08 03:32:41;;;;;;;16.45;4.43;;;12.10;99.90;;;;;;5026315;28;20056;-73
2023/10/08 03:35:10;;;;;;;15.05;4.25;;;12.10;99.90;;;;;;5043765;28;20048;-74
2023/10/08 03:37:50;;;;;;;9.13;4.13;;;12.10;99.90;;;;;;5025869;28;20087;-73
2023/10/08 03:40:25;;;;;;;12.60;4.60;;;12.10;99.90;;;;;;5025717;28;20033;-74
2023/10/08 03:42:51;;;;;;;17.20;4.60;;;12.10;99.90;;;;;;5025896;28;20029;-74
2023/10/08 03:45:48;;;;;;;12.85;3.90;;;12.00;99.90;;;;;;5043943;28;20112;-74
2023/10/08 03:48:09;;;;;;;12.60;4.55;;;12.10;99.90;;;;;;5043455;28;20046;-74
2023/10/08 03:50:42;;;;;;;20.83;4.60;;;12.00;99.90;;;;;;5025828;28;20509;-74
2023/10/08 03:53:12;;;;;;;13.75;4.50;;;12.00;99.90;;;;;;5043601;28;20013;-73
2023/10/08 03:55:41;;;;;;;13.55;4.25;;;12.00;99.90;;;;;;5025234;28;20021;-74
2023/10/08 03:58:16;;;;;;;12.88;5.35;;;12.10;99.90;;;;;;5042900;28;20052;-73
2023/10/08 04:00:45;;;;;;;12.77;5.47;;;12.10;99.90;;;;;;5043742;28;20052;-75
2023/10/08 04:03:11;;;;;;;16.92;5.63;;;12.10;99.90;;;;;;5025364;28;20030;-75
2023/10/08 04:05:51;;;;;;;14.57;5.43;;;12.10;99.90;;;;;;5042794;28;20017;-76
2023/10/08 04:08:19;;;;;;;18.33;5.65;;;12.10;99.90;;;;;;5043030;28;20017;-74
2023/10/08 04:13:11;;;;;;;21.60;6.60;;;12.10;99.90;;;;;;5042856;28;20044;-75
2023/10/08 04:15:41;;;;;;;19.73;7.50;;;12.10;99.90;;;;;;5043422;28;20029;-76
2023/10/08 04:18:13;;;;;;;22.05;7.35;;;12.10;99.90;;;;;;5042818;28;20466;-77
2023/10/08 04:20:38;;;;;;;21.25;7.60;;;12.00;99.90;;;;;;5024884;28;20033;-74
2023/10/08 04:23:13;;;;;;;20.98;7.22;;;12.10;99.90;;;;;;5042719;28;20037;-74
2023/10/08 04:25:41;;;;;;;26.25;7.78;;;12.10;99.90;;;;;;5024536;28;20022;-75
2023/10/08 04:28:13;;;;;;;19.67;7.72;;;12.00;99.90;;;;;;5043216;28;20025;-75
2023/10/08 04:30:41;;;;;;;21.98;7.90;;;12.00;99.90;;;;;;5042798;28;20026;-75
2023/10/08 04:33:14;;;;;;;19.77;7.47;;;12.00;99.90;;;;;;5024531;28;20049;-74
2023/10/08 04:35:48;;;;;;;18.88;7.57;;;12.00;99.90;;;;;;5043263;28;20037;-75
2023/10/08 04:38:21;;;;;;;29.40;8.25;;;12.10;99.90;;;;;;5042497;28;20030;-74
2023/10/08 04:40:53;;;;;;;29.98;8.80;;;12.00;99.90;;;;;;5042750;28;20037;-73
2023/10/08 04:43:24;;;;;;;25.33;8.65;;;12.00;99.90;;;;;;5024703;28;20474;-73
2023/10/08 04:46:19;;;;;;;21.60;8.00;;;12.00;99.90;;;;;;5042697;28;20017;-74
2023/10/08 04:48:45;;;;;;;25.77;8.02;;;12.00;99.90;;;;;;5024331;28;20052;-74
2023/10/08 04:51:12;;;;;;;25.70;8.73;;;12.00;99.90;;;;;;5042406;28;20048;-74
2023/10/08 04:53:44;;;;;;;21.10;8.40;;;12.00;99.90;;;;;;5024678;28;20041;-74
2023/10/08 04:56:16;;;;;;;25.63;8.48;;;12.00;99.90;;;;;;5024463;28;20041;-75
2023/10/08 04:58:48;;;;;;;23.25;8.60;;;12.00;99.90;;;;;;5024718;28;20033;-75
2023/10/08 05:01:18;;;;;;;28.67;9.40;;;11.90;99.90;;;;;;5041967;28;20033;-74
2023/10/08 05:12:15;;;;;;;25.60;7.72;;;11.90;99.90;;;;;;5014078;28;20041;-74
2023/10/08 05:14:55;;;;;;;22.77;8.32;;;12.00;99.90;;;;;;5042139;28;20089;-72
2023/10/08 05:20:19;;;;;;;13.90;5.95;;;12.00;99.90;;;;;;5041495;28;20085;-73
2023/10/08 05:22:44;;;;;;;21.35;6.00;;;12.00;99.90;;;;;;5041768;28;20056;-73
2023/10/08 05:25:24;;;;;;;19.83;5.50;;;12.00;99.90;;;;;;5023582;28;20398;-74
2023/10/08 05:30:38;;;;;;;20.08;5.30;;;11.90;99.90;;;;;;5041943;28;20057;-73
2023/10/08 05:33:13;;;;;;;15.45;5.18;;;11.90;99.90;;;;;;5041672;28;20056;-75
2023/10/08 05:49:02;;;;;;;16.70;3.97;;;11.90;99.90;;;;;;5040494;28;20079;-74
2023/10/08 05:51:45;;;;;;;14.43;3.33;;;11.90;99.90;;;;;;5041557;28;20391;-73
2023/10/08 06:18:26;;;;;;;11.90;2.75;;;11.90;99.90;;;;;;5040909;28;20474;-74
2023/10/08 06:20:58;;;;;;;13.23;3.00;;;11.90;99.90;;;;;;5041604;28;20454;-74
2023/10/08 06:23:25;;;;;;;11.68;2.80;;;11.90;99.90;;;;;;5041150;28;20018;-73
2023/10/08 06:28:38;;;;;;;10.75;2.47;;;12.00;99.90;;;;;;5043573;28;20025;-74
2023/10/08 06:31:06;;;;;;;10.50;2.60;;;12.00;99.90;;;;;;5044417;28;20033;-74
2023/10/08 06:33:36;;;;;;;9.82;2.28;;;12.00;99.90;;;;;;5045427;28;20104;-75
2023/10/08 06:38:39;;;;;;;11.05;2.40;;;12.10;99.90;;;;;;5044574;28;20034;-75
2023/10/08 06:41:15;;;;;;;9.68;2.97;;;12.10;99.90;;;;;;5045231;28;20029;-75
2023/10/08 06:43:49;;;;;;;9.15;2.10;;;12.10;99.90;;;;;;5027503;28;20406;-74
2023/10/08 06:46:18;;;;;;;11.30;2.50;;;12.10;99.90;;;;;;5044818;28;20029;-73
2023/10/08 06:48:45;;;;;;;16.20;2.20;;;12.10;99.90;;;;;;5026049;28;20053;-74
2023/10/08 06:51:17;;;;;;;10.93;2.35;;;12.10;99.90;;;;;;5027837;28;20095;-75
2023/10/08 06:53:44;;;;;;;10.32;2.33;;;12.20;99.90;;;;;;5044155;28;20463;-74
2023/10/08 06:56:12;;;;;;;10.15;2.47;;;12.20;99.90;;;;;;5027103;28;20041;-74
2023/10/08 06:58:38;;;;;;;9.65;2.25;;;12.20;99.90;;;;;;5044689;28;20033;-74
2023/10/08 07:01:04;;;;;;;10.38;2.28;;;12.20;99.90;;;;;;5026858;28;20033;-75
2023/10/08 07:03:32;;;;;;;19.23;2.35;;;12.20;99.90;;;;;;5043899;28;20017;-75
2023/10/08 07:05:59;;;;;;;8.85;2.08;;;12.20;99.90;;;;;;5026094;28;20069;-74
2023/10/08 07:08:35;;;;;;;10.70;2.15;;;12.30;99.90;;;;;;5044419;28;20029;-75
2023/10/08 07:11:06;;;;;;;12.23;2.53;;;12.30;99.90;;;;;;5044811;28;20021;-74
2023/10/08 07:13:35;;;;;;;10.82;2.22;;;12.40;99.90;;;;;;5044258;28;20060;-75
2023/10/08 07:16:04;;;;;;;12.93;2.30;;;12.40;99.90;;;;;;5044335;28;20124;-75
2023/10/08 07:18:33;;;;;;;14.75;2.20;;;12.40;99.90;;;;;;5026664;28;20456;-74
2023/10/08 07:21:04;;;;;;;12.77;2.50;;;12.40;99.90;;;;;;5043910;28;20025;-74
2023/10/08 07:23:34;;;;;;;8.80;2.10;;;12.50;99.90;;;;;;5026080;28;20112;-73
2023/10/08 07:26:17;;;;;;;9.75;2.30;;;12.50;99.90;;;;;;5026662;28;20093;-74
2023/10/08 07:28:45;;;;;;;14.05;2.13;;;12.50;99.90;;;;;;5044004;28;20032;-75
2023/10/08 07:31:20;;;;;;;15.20;2.00;;;12.50;99.90;;;;;;5043757;28;20035;-74
2023/10/08 07:33:55;;;;;;;11.13;2.42;;;12.60;99.90;;;;;;5043770;28;20021;-74
2023/10/08 07:36:21;;;;;;;12.15;2.75;;;12.70;99.90;;;;;;5043561;28;20029;-74
2023/10/08 07:38:47;;;;;;;8.23;1.52;;;12.80;99.90;;;;;;5043386;28;20034;-74
2023/10/08 07:41:14;;;;;;;6.38;1.95;;;12.90;99.90;;;;;;5043128;28;20025;-74
2023/10/08 07:43:55;;;;;;;5.82;1.50;;;12.90;99.90;;;;;;5043686;28;20071;-75
2023/10/08 07:46:26;;;;;;;10.88;1.70;;;13.00;99.90;;;;;;5026319;28;20028;-74
2023/10/08 07:48:53;;;;;;;8.80;1.83;;;13.20;99.90;;;;;;5025565;28;20045;-73
2023/10/08 07:51:24;;;;;;;10.98;1.65;;;13.40;99.90;;;;;;5025288;28;20022;-74
2023/10/08 07:53:55;;;;;;;8.20;1.55;;;13.50;99.90;;;;;;5025649;28;20021;-73
2023/10/08 07:56:25;;;;;;;6.82;1.63;;;13.60;99.90;;;;;;5043529;28;20034;-75
2023/10/08 07:58:51;;;;;;;11.45;1.60;;;13.80;99.90;;;;;;5043370;28;20049;-73
2023/10/08 08:01:17;;;;;;;14.57;2.05;;;13.80;99.90;;;;;;5043347;28;20037;-74
2023/10/08 08:03:48;;;;;;;5.82;1.52;;;13.80;99.90;;;;;;5024141;28;20013;-75
2023/10/08 08:06:15;;;;;;;12.80;2.20;;;13.80;99.90;;;;;;5041679;28;20017;-74
2023/10/08 08:08:47;;;;;;;9.63;1.88;;;13.70;99.90;;;;;;5043114;28;20125;-74
2023/10/08 08:11:17;;;;;;;10.32;2.28;;;13.80;99.90;;;;;;5040380;28;20496;-73
2023/10/08 08:13:43;;;;;;;12.10;2.13;;;13.80;99.90;;;;;;5041169;28;20101;-74
2023/10/08 08:16:18;;;;;;;5.53;1.73;;;13.90;99.90;;;;;;5043538;28;20055;-73
2023/10/08 08:18:54;;;;;;;8.00;1.60;;;13.90;99.90;;;;;;5024384;28;20371;-75
2023/10/08 08:21:23;;;;;;;6.25;1.45;;;14.10;99.90;;;;;;5040959;28;20051;-74
2023/10/08 08:23:49;;;;;;;12.13;1.83;;;14.20;99.90;;;;;;5041582;28;20728;-73
2023/10/08 08:26:29;;;;;;;9.15;1.80;;;14.30;99.90;;;;;;5025188;28;20381;-74
2023/10/08 08:29:02;;;;;;;15.77;1.60;;;14.40;99.90;;;;;;5041766;28;20095;-75
2023/10/08 08:31:32;;;;;;;10.90;1.75;;;14.40;99.90;;;;;;5023702;28;20825;-74
2023/10/08 08:33:59;;;;;;;12.60;1.83;;;14.50;99.90;;;;;;5042930;28;20026;-74
2023/10/08 08:36:27;;;;;;;6.57;1.50;;;14.50;99.90;;;;;;5041652;28;20025;-74
2023/10/08 08:38:53;;;;;;;11.23;1.95;;;14.50;99.90;;;;;;5042129;28;20061;-74
2023/10/08 08:41:23;;;;;;;10.02;1.85;;;14.60;99.90;;;;;;5041436;28;20081;-74
2023/10/08 08:43:58;;;;;;;11.02;1.40;;;14.60;99.90;;;;;;5024452;28;20029;-74
2023/10/08 08:46:37;;;;;;;14.35;2.28;;;14.60;99.90;;;;;;5024309;28;20029;-74
2023/10/08 08:49:07;;;;;;;13.98;2.00;;;14.70;99.90;;;;;;5024625;28;20045;-72
2023/10/08 08:51:37;;;;;;;10.52;1.75;;;14.60;99.90;;;;;;5042035;28;20029;-73
2023/10/08 08:54:06;;;;;;;15.05;1.70;;;14.70;99.90;;;;;;5042828;28;20022;-74
2023/10/08 08:56:40;;;;;;;12.07;2.00;;;14.80;99.90;;;;;;5041972;28;20030;-74
2023/10/08 08:59:06;;;;;;;7.18;1.70;;;14.80;99.90;;;;;;5024067;28;20033;-75
2023/10/08 09:01:32;;;;;;;9.38;1.95;;;14.90;99.90;;;;;;5042664;28;20125;-74
2023/10/08 09:04:05;;;;;;;7.68;1.85;;;14.90;99.90;;;;;;5023854;28;20025;-75
2023/10/08 09:06:34;;;;;;;6.07;1.65;;;15.00;99.90;;;;;;5024409;28;20256;-75
2023/10/08 09:09:44;;;;;;;9.77;1.98;;;15.00;99.90;;;;;;5023976;28;20064;-75
2023/10/08 09:11:55;;;;;;;9.13;1.40;;;15.10;99.90;;;;;;5028842;28;20045;-75
2023/10/08 09:14:22;;;;;;;6.90;1.67;;;15.20;99.90;;;;;;5040327;28;20356;-75
2023/10/08 09:16:49;;;;;;;10.73;1.40;;;15.20;99.90;;;;;;5040751;28;20029;-76
2023/10/08 09:19:18;;;;;;;6.40;1.45;;;15.20;99.90;;;;;;5022751;28;20057;-76
2023/10/08 09:22:10;;;;;;;8.43;1.67;;;15.10;99.90;;;;;;5023872;28;20470;-77
2023/10/08 09:24:40;;;;;;;9.10;2.10;;;15.10;99.90;;;;;;5024031;28;20568;-77
2023/10/08 09:27:07;;;;;;;6.47;1.67;;;15.10;99.90;;;;;;5039133;28;20025;-77
2023/10/08 09:29:39;;;;;;;9.02;2.25;;;15.10;99.90;;;;;;5040468;28;20033;-75
2023/10/08 09:32:07;;;;;;;11.93;1.70;;;15.20;99.90;;;;;;5041824;28;20053;-76
2023/10/08 09:34:33;;;;;;;8.30;1.35;;;15.30;99.90;;;;;;5039039;28;20018;-74
2023/10/08 09:37:00;;;;;;;8.60;1.48;;;15.30;99.90;;;;;;5041437;28;20506;-77
2023/10/08 09:39:33;;;;;;;7.75;1.42;;;15.40;99.90;;;;;;5040632;28;20064;-77
2023/10/08 09:42:03;;;;;;;5.40;1.63;;;15.50;99.90;;;;;;5041360;28;20056;-76
2023/10/08 09:44:30;;;;;;;7.18;1.33;;;15.60;99.90;;;;;;5041372;28;20312;-77
2023/10/08 09:47:10;;;;;;;6.90;1.20;;;15.60;99.90;;;;;;5040860;28;20037;-76
2023/10/08 09:49:52;;;;;;;6.25;1.10;;;15.70;99.90;;;;;;5023476;28;20485;-77
2023/10/08 09:52:38;;;;;;;3.22;1.38;;;15.80;99.90;;;;;;5019871;28;20045;-78
2023/10/08 09:55:10;;;;;;;9.38;1.40;;;15.90;99.90;;;;;;5019467;28;20025;-77
2023/10/08 09:57:36;;;;;;;9.02;1.20;;;16.00;99.90;;;;;;5024088;28;20040;-76
2023/10/08 10:00:05;;;;;;;5.35;1.23;;;16.00;99.90;;;;;;5041539;28;20013;-78
2023/10/08 10:02:32;;;;;;;6.15;1.25;;;16.00;99.90;;;;;;5021872;28;20033;-76
2023/10/08 10:05:00;;;;;;;6.75;1.30;;;16.00;99.90;;;;;;5022752;28;20053;-77
2023/10/08 10:07:28;;;;;;;9.75;1.45;;;15.90;99.90;;;;;;5041208;28;20029;-78
2023/10/08 10:09:55;;;;;;;9.32;1.88;;;15.90;99.90;;;;;;5041093;28;20085;-78
2023/10/08 10:12:25;;;;;;;7.60;1.23;;;15.80;99.90;;;;;;5040209;28;20022;-80
2023/10/08 10:14:55;;;;;;;6.32;1.15;;;15.70;99.90;;;;;;5023576;28;20017;-77
2023/10/08 10:17:22;;;;;;;6.10;1.30;;;15.70;99.90;;;;;;5041136;28;20485;-77
2023/10/08 10:19:55;;;;;;;5.53;1.40;;;15.80;99.90;;;;;;5023070;28;20045;-79
2023/10/08 10:22:34;;;;;;;7.00;1.33;;;15.90;99.90;;;;;;5022686;28;20025;-78
2023/10/08 10:25:14;;;;;;;4.68;1.40;;;16.00;99.90;;;;;;5023169;28;20415;-79
2023/10/08 10:27:42;;;;;;;4.78;1.08;;;16.10;99.90;;;;;;5024163;28;20091;-78
2023/10/08 10:30:08;;;;;;;7.57;1.30;;;16.20;99.90;;;;;;5023346;28;20025;-80
2023/10/08 10:32:37;;;;;;;8.02;1.13;;;16.10;99.90;;;;;;5023021;28;20038;-80
2023/10/08 10:35:11;;;;;;;8.57;1.33;;;15.90;99.90;;;;;;5022129;28;20030;-80
2023/10/08 10:37:52;;;;;;;4.33;1.10;;;15.80;99.90;;;;;;5020800;28;20041;-81
2023/10/08 10:40:29;;;;;;;8.13;1.30;;;15.70;99.90;;;;;;5021350;28;20060;-80
2023/10/08 10:43:01;;;;;;;4.70;1.05;;;15.60;99.90;;;;;;5022156;28;20097;-79
2023/10/08 10:46:19;;;;;;;6.93;1.00;;;15.50;99.90;;;;;;5021143;28;20030;-79
2023/10/08 10:53:44;;;;;;;7.70;1.42;;;16.30;99.90;;;;;;5041205;28;20030;-77
2023/10/08 10:56:18;;;;;;;5.60;1.20;;;16.60;99.90;;;;;;5023190;28;20120;-79
2023/10/08 10:58:53;;;;;;;7.20;1.27;;;16.90;99.90;;;;;;5022808;28;20767;-79
2023/10/08 11:01:25;;;;;;;5.05;1.20;;;16.90;99.90;;;;;;5022497;28;20036;-79
2023/10/08 11:03:52;;;;;;;7.28;1.05;;;16.90;99.90;;;;;;5022631;28;20021;-78
2023/10/08 11:06:25;;;;;;;4.65;1.02;;;16.80;99.90;;;;;;5022539;28;20064;-79
2023/10/08 11:08:52;;;;;;;7.55;1.33;;;17.00;99.90;;;;;;5023237;28;20033;-81
2023/10/08 11:11:19;;;;;;;4.10;1.02;;;17.00;99.90;;;;;;5023058;28;20025;-80
2023/10/08 11:13:51;;;;;;;4.88;1.10;;;17.00;99.90;;;;;;5024122;28;20025;-80
2023/10/08 11:16:21;;;;;;;7.30;1.02;;;17.00;99.90;;;;;;5043635;28;20029;-77
2023/10/08 11:18:50;;;;;;;3.50;0.90;;;16.90;99.90;;;;;;5044215;28;20025;-79
2023/10/08 11:21:17;;;;;;;5.57;1.50;;;16.90;99.90;;;;;;5044470;28;20021;-82
2023/10/08 11:23:52;;;;;;;6.88;1.20;;;16.80;99.90;;;;;;5026223;28;20037;-78
2023/10/08 11:26:19;;;;;;;7.78;1.10;;;16.80;99.90;;;;;;5027064;28;20053;-81
2023/10/08 11:28:48;;;;;;;6.20;1.08;;;16.70;99.90;;;;;;5026220;28;20021;-78
2023/10/08 11:31:19;;;;;;;6.13;1.20;;;16.70;99.90;;;;;;5043832;28;20029;-79
2023/10/08 11:33:53;;;;;;;7.30;1.15;;;16.70;99.90;;;;;;5034745;28;20033;-77
2023/10/08 11:36:22;;;;;;;4.75;0.90;;;16.80;99.90;;;;;;5043363;28;20090;-79
2023/10/08 11:38:48;;;;;;;6.15;1.13;;;17.10;99.90;;;;;;5026086;28;20053;-78
2023/10/08 11:41:21;;;;;;;7.93;1.10;;;17.60;99.90;;;;;;5025455;28;20029;-80
2023/10/08 11:43:53;;;;;;;8.43;0.98;;;18.00;99.90;;;;;;5025883;28;20463;-82
2023/10/08 11:46:26;;;;;;;3.35;1.17;;;18.50;99.90;;;;;;5025457;28;20049;-78
2023/10/08 11:48:52;;;;;;;2.40;0.85;;;18.70;99.90;;;;;;5043258;28;20034;-76
2023/10/08 11:51:17;;;;;;;6.25;1.20;;;18.60;99.90;;;;;;5025845;28;20056;-79
2023/10/08 11:53:44;;;;;;;6.43;1.17;;;18.30;99.90;;;;;;5044006;28;20494;-77
2023/10/08 11:56:13;;;;;;;6.22;1.00;;;18.00;99.90;;;;;;5043473;28;20087;-77
2023/10/08 11:58:45;;;;;;;4.75;0.90;;;17.70;99.90;;;;;;5043732;28;20382;-78
2023/10/08 12:01:17;;;;;;;5.90;0.90;;;17.50;99.90;;;;;;5039376;28;20037;-76
2023/10/08 12:03:46;;;;;;;7.93;1.25;;;17.30;99.90;;;;;;5025831;28;20033;-79
2023/10/08 12:06:18;;;;;;;5.53;0.90;;;17.20;99.90;;;;;;5023192;28;20048;-77
2023/10/08 12:08:46;;;;;;;8.75;1.15;;;17.20;99.90;;;;;;5024341;28;20064;-77
2023/10/08 12:11:15;;;;;;;5.80;1.10;;;17.20;99.90;;;;;;5023630;28;20060;-76
2023/10/08 12:13:45;;;;;;;3.30;1.15;;;17.40;99.90;;;;;;5038371;28;20047;-78
2023/10/08 12:16:17;;;;;;;8.02;1.20;;;17.70;99.90;;;;;;5023406;28;20041;-78
2023/10/08 12:18:48;;;;;;;3.63;0.95;;;17.80;99.90;;;;;;5022773;28;20025;-76
2023/10/08 12:21:17;;;;;;;3.75;1.15;;;17.80;99.90;;;;;;5028232;28;20022;-74
2023/10/08 12:23:45;;;;;;;3.67;0.80;;;17.50;99.90;;;;;;5038656;28;20021;-79
2023/10/08 12:26:15;;;;;;;6.80;1.33;;;17.40;99.90;;;;;;5038735;28;20032;-79
2023/10/08 12:28:44;;;;;;;6.85;1.13;;;17.30;99.90;;;;;;5022292;28;20037;-78
2023/10/08 12:31:11;;;;;;;3.05;1.00;;;17.30;99.90;;;;;;5024344;28;20037;-78
2023/10/08 12:33:37;;;;;;;4.22;0.93;;;17.40;99.90;;;;;;5042063;28;20033;-80
2023/10/08 12:36:10;;;;;;;6.07;1.08;;;17.50;99.90;;;;;;5041382;28;20042;-76
2023/10/08 12:38:38;;;;;;;6.78;1.20;;;17.50;99.90;;;;;;5024959;28;21012;-81
2023/10/08 12:41:12;;;;;;;4.53;1.10;;;17.50;99.90;;;;;;5041863;28;20053;-76
2023/10/08 12:43:45;;;;;;;2.80;1.10;;;17.50;99.90;;;;;;5042945;28;20025;-77
2023/10/08 12:46:36;;;;;;;3.92;1.05;;;17.70;99.90;;;;;;5042831;28;20029;-78
2023/10/08 12:49:01;;;;;;;5.45;1.08;;;17.90;99.90;;;;;;5041865;28;20048;-75
2023/10/08 12:51:31;;;;;;;7.85;1.13;;;17.90;99.90;;;;;;5024187;28;20059;-78
2023/10/08 12:54:06;;;;;;;5.75;1.17;;;17.90;99.90;;;;;;5023721;28;20084;-81
2023/10/08 12:56:48;;;;;;;12.00;1.45;;;17.70;99.90;;;;;;5024962;28;20048;-80
2023/10/08 12:59:20;;;;;;;8.32;1.20;;;17.60;99.90;;;;;;5024175;28;20028;-80
2023/10/08 13:01:51;;;;;;;5.65;1.13;;;17.60;99.90;;;;;;5024881;28;20025;-80
2023/10/08 13:04:34;;;;;;;4.95;1.10;;;17.50;99.90;;;;;;5024633;28;20104;-78
2023/10/08 13:07:03;;;;;;;7.53;1.57;;;17.40;99.90;;;;;;5042107;28;20072;-78
2023/10/08 13:09:36;;;;;;;3.80;1.10;;;17.30;99.90;;;;;;5025385;28;20021;-81
2023/10/08 13:12:02;;;;;;;5.53;1.48;;;17.20;99.90;;;;;;5024405;28;20040;-77
2023/10/08 13:14:28;;;;;;;5.60;1.40;;;17.10;99.90;;;;;;5041491;28;20033;-82
2023/10/08 13:16:53;;;;;;;6.72;1.20;;;17.10;99.90;;;;;;5024619;28;20041;-82
2023/10/08 13:19:20;;;;;;;4.22;1.23;;;17.10;99.90;;;;;;5023897;28;20561;-81
2023/10/08 13:21:47;;;;;;;8.57;1.48;;;17.20;99.90;;;;;;5024484;28;20108;-81
2023/10/08 13:24:13;;;;;;;4.63;1.40;;;17.30;99.90;;;;;;5024404;28;20045;-80
2023/10/08 13:26:38;;;;;;;4.68;1.15;;;17.30;99.90;;;;;;5025227;28;20052;-81
2023/10/08 13:29:09;;;;;;;6.63;1.23;;;17.20;99.90;;;;;;5024898;28;20034;-80
2023/10/08 13:31:36;;;;;;;5.07;1.00;;;17.20;99.90;;;;;;5024344;28;20040;-81
2023/10/08 13:34:03;;;;;;;6.03;1.30;;;17.40;99.90;;;;;;5041958;28;20025;-82
2023/10/08 13:36:29;;;;;;;6.05;1.63;;;17.40;99.90;;;;;;5024071;28;20382;-79
2023/10/08 13:38:56;;;;;;;7.15;1.55;;;17.40;99.90;;;;;;5021920;28;20037;-77
2023/10/08 13:41:21;;;;;;;4.80;1.30;;;17.40;99.90;;;;;;5023718;28;20490;-81
2023/10/08 13:43:51;;;;;;;8.98;1.52;;;17.40;99.90;;;;;;5022272;28;20030;-83
2023/10/08 13:46:18;;;;;;;7.72;1.38;;;17.60;99.90;;;;;;5024295;28;20551;-80
2023/10/08 13:48:48;;;;;;;5.68;1.50;;;17.80;99.90;;;;;;5023873;28;20053;-80
2023/10/08 13:51:20;;;;;;;6.30;1.20;;;17.90;99.90;;;;;;5024119;28;20026;-81
2023/10/08 13:53:52;;;;;;;4.95;1.20;;;17.80;99.90;;;;;;5023332;28;20017;-82
2023/10/08 13:56:24;;;;;;;6.15;1.30;;;17.80;99.90;;;;;;5023823;28;20025;-80
2023/10/08 13:58:51;;;;;;;10.25;1.42;;;17.80;99.90;;;;;;5042072;28;20022;-80
2023/10/08 14:01:20;;;;;;;9.20;1.40;;;17.80;99.90;;;;;;5021911;28;20044;-81
2023/10/08 14:03:53;;;;;;;9.40;1.45;;;17.70;99.90;;;;;;5022888;28;20048;-81
2023/10/08 14:06:20;;;;;;;6.63;2.22;;;17.60;99.90;;;;;;5022053;28;20048;-82
2023/10/08 14:08:51;;;;;;;5.95;1.50;;;17.50;99.90;;;;;;5020658;28;20017;-84
2023/10/08 14:11:23;;;;;;;5.88;1.80;;;17.40;99.90;;;;;;5023828;28;20045;-82